Wetterdaten: Woche 16.05.16 - 22.05.16 (KW20)
Datum Zeit Temp. Aussen Temp. o. S. +5cm Feuchte Auss BlattFeu 1 Luftdruck Regen Sonnenschein Regendauer Solar Windben Empfang
16.05.2016 00:00 7,3 C 6,7 C 5,7 C 75 % 0 lf 1020,0 hPa 0,0 l/m 0,00 h 0,00 h 0 W/m 7,7 km/h (2 Bft) 99,20 %
16.05.2016 01:00 6,8 C 6,1 C 5,5 C 77 % 0 lf 1019,9 hPa 0,0 l/m 0,00 h 0,00 h 0 W/m 5,8 km/h (2 Bft) 94,04 %
16.05.2016 02:00 6,6 C 6,3 C 5,5 C 81 % 0 lf 1019,8 hPa 0,0 l/m 0,00 h 0,00 h 0 W/m 7,3 km/h (2 Bft) 94,94 %
16.05.2016 03:00 6,4 C 6,0 C 5,3 C 82 % 0 lf 1019,6 hPa 0,0 l/m 0,00 h 0,00 h 0 W/m 5,0 km/h (1 Bft) 97,81 %
16.05.2016 04:00 6,4 C 6,3 C 5,5 C 85 % 6 lf 1019,5 hPa 0,0 l/m 0,00 h 0,20 h 0 W/m 6,0 km/h (2 Bft) 96,23 %
16.05.2016 05:00 6,3 C 5,2 C 4,4 C 84 % 2 lf 1019,4 hPa 0,0 l/m 0,00 h 0,00 h 7 W/m 5,0 km/h (1 Bft) 95,98 %
16.05.2016 06:00 5,3 C 4,8 C 3,8 C 84 % 0 lf 1019,4 hPa 0,0 l/m 0,63 h 0,00 h 74 W/m 6,2 km/h (2 Bft) 95,37 %
16.05.2016 07:00 5,9 C 7,9 C 6,5 C 88 % 0 lf 1019,4 hPa 0,0 l/m 0,60 h 0,00 h 134 W/m 10,9 km/h (2 Bft) 96,58 %
16.05.2016 08:00 7,4 C 8,5 C 7,2 C 84 % 3 lf 1019,7 hPa 0,0 l/m 0,00 h 0,17 h 108 W/m 9,2 km/h (2 Bft) 96,51 %
16.05.2016 09:00 8,9 C 13,2 C 10,1 C 80 % 0 lf 1019,8 hPa 0,0 l/m 0,87 h 0,00 h 339 W/m 12,8 km/h (3 Bft) 97,58 %
16.05.2016 10:00 10,6 C 13,8 C 11,2 C 71 % 0 lf 1019,8 hPa 0,0 l/m 0,47 h 0,00 h 288 W/m 15,3 km/h (3 Bft) 94,30 %
16.05.2016 11:00 11,3 C 17,0 C 14,4 C 67 % 1 lf 1019,7 hPa 0,0 l/m 0,48 h 0,07 h 495 W/m 13,7 km/h (3 Bft) 97,48 %
16.05.2016 12:00 12,9 C 19,2 C 15,2 C 58 % 0 lf 1019,5 hPa 0,0 l/m 0,50 h 0,00 h 567 W/m 15,9 km/h (3 Bft) 98,14 %
16.05.2016 13:00 13,3 C 16,6 C 13,6 C 57 % 0 lf 1019,5 hPa 0,0 l/m 0,33 h 0,00 h 327 W/m 15,6 km/h (3 Bft) 92,46 %
16.05.2016 14:00 14,5 C 18,3 C 14,2 C 54 % 0 lf 1019,2 hPa 0,0 l/m 0,43 h 0,00 h 397 W/m 14,2 km/h (3 Bft) 98,57 %
16.05.2016 15:00 13,0 C 14,7 C 13,0 C 59 % 0 lf 1019,1 hPa 0,0 l/m 0,27 h 0,00 h 265 W/m 15,7 km/h (3 Bft) 97,66 %
16.05.2016 16:00 13,2 C 14,2 C 12,6 C 59 % 0 lf 1018,9 hPa 0,0 l/m 0,00 h 0,03 h 141 W/m 16,9 km/h (3 Bft) 93,40 %
16.05.2016 17:00 12,8 C 13,6 C 12,3 C 62 % 0 lf 1018,9 hPa 0,0 l/m 0,03 h 0,00 h 154 W/m 19,4 km/h (3 Bft) 96,72 %
16.05.2016 18:00 12,9 C 14,3 C 12,7 C 65 % 0 lf 1019,0 hPa 0,0 l/m 0,50 h 0,00 h 228 W/m 15,9 km/h (3 Bft) 97,79 %
16.05.2016 19:00 12,6 C 13,0 C 11,9 C 65 % 0 lf 1019,0 hPa 0,0 l/m 0,07 h 0,00 h 113 W/m 15,5 km/h (3 Bft) 93,89 %
16.05.2016 20:00 11,8 C 11,5 C 10,4 C 68 % 0 lf 1018,9 hPa 0,0 l/m 0,00 h 0,00 h 19 W/m 11,0 km/h (2 Bft) 97,01 %
16.05.2016 21:00 11,1 C 10,5 C 9,6 C 72 % 0 lf 1019,1 hPa 0,0 l/m 0,00 h 0,00 h 5 W/m 5,9 km/h (2 Bft) 96,80 %
16.05.2016 22:00 10,5 C 9,7 C 8,8 C 75 % 0 lf 1019,2 hPa 0,0 l/m 0,00 h 0,00 h 0 W/m 3,9 km/h (1 Bft) 95,80 %
16.05.2016 23:00 9,9 C 9,3 C 8,5 C 77 % 0 lf 1019,2 hPa 0,0 l/m 0,00 h 0,00 h 0 W/m 3,7 km/h (1 Bft) 96,33 %
17.05.2016 00:00 9,5 C 9,1 C 8,3 C 79 % 0 lf 1019,2 hPa 0,0 l/m 0,00 h 0,00 h 0 W/m 4,3 km/h (1 Bft) 95,89 %
17.05.2016 01:00 9,2 C 8,9 C 8,0 C 80 % 0 lf 1019,2 hPa 0,0 l/m 0,00 h 0,00 h 0 W/m 3,8 km/h (1 Bft) 95,42 %
17.05.2016 02:00 9,0 C 8,6 C 7,8 C 81 % 0 lf 1018,9 hPa 0,0 l/m 0,00 h 0,00 h 0 W/m 3,8 km/h (1 Bft) 98,86 %
17.05.2016 03:00 8,7 C 8,4 C 7,7 C 82 % 0 lf 1018,6 hPa 0,0 l/m 0,00 h 0,00 h 0 W/m 4,3 km/h (1 Bft) 95,40 %
17.05.2016 04:00 8,5 C 8,3 C 7,4 C 83 % 0 lf 1018,1 hPa 0,0 l/m 0,00 h 0,00 h 0 W/m 5,1 km/h (1 Bft) 94,71 %
17.05.2016 05:00 8,4 C 8,3 C 7,8 C 85 % 0 lf 1017,6 hPa 0,0 l/m 0,00 h 0,00 h 6 W/m 8,8 km/h (2 Bft) 98,08 %
17.05.2016 06:00 8,5 C 9,0 C 8,0 C 84 % 0 lf 1017,3 hPa 0,0 l/m 0,00 h 0,00 h 24 W/m 8,2 km/h (2 Bft) 95,61 %
17.05.2016 07:00 9,0 C 9,8 C 8,9 C 84 % 0 lf 1017,2 hPa 0,0 l/m 0,00 h 0,00 h 50 W/m 7,7 km/h (2 Bft) 97,01 %
17.05.2016 08:00 9,8 C 11,2 C 9,9 C 80 % 0 lf 1017,2 hPa 0,0 l/m 0,00 h 0,00 h 104 W/m 10,4 km/h (2 Bft) 96,16 %
17.05.2016 09:00 11,4 C 13,3 C 12,0 C 76 % 0 lf 1017,1 hPa 0,0 l/m 0,00 h 0,00 h 211 W/m 14,0 km/h (3 Bft) 95,23 %
17.05.2016 10:00 13,5 C 16,4 C 14,6 C 71 % 0 lf 1017,0 hPa 0,0 l/m 0,73 h 0,00 h 371 W/m 19,9 km/h (4 Bft) 96,87 %
17.05.2016 11:00 15,2 C 18,5 C 16,4 C 65 % 0 lf 1016,8 hPa 0,0 l/m 1,00 h 0,00 h 464 W/m 24,3 km/h (4 Bft) 96,80 %
17.05.2016 12:00 17,3 C 23,7 C 21,4 C 61 % 0 lf 1016,5 hPa 0,0 l/m 0,93 h 0,00 h 720 W/m 23,3 km/h (4 Bft) 95,38 %
17.05.2016 13:00 18,0 C 19,8 C 18,0 C 55 % 0 lf 1016,2 hPa 0,0 l/m 0,27 h 0,00 h 374 W/m 21,7 km/h (4 Bft) 96,30 %
17.05.2016 14:00 17,4 C 20,0 C 17,9 C 55 % 0 lf 1015,8 hPa 0,0 l/m 0,40 h 0,00 h 360 W/m 20,6 km/h (4 Bft) 96,08 %
17.05.2016 15:00 17,8 C 19,9 C 18,1 C 54 % 0 lf 1015,5 hPa 0,0 l/m 0,20 h 0,00 h 340 W/m 18,7 km/h (3 Bft) 95,12 %
17.05.2016 16:00 18,4 C 20,2 C 18,4 C 53 % 0 lf 1015,0 hPa 0,0 l/m 0,23 h 0,00 h 302 W/m 16,6 km/h (3 Bft) 96,74 %
17.05.2016 17:00 18,1 C 19,4 C 14,3 C 56 % 0 lf 1014,6 hPa 0,0 l/m 0,40 h 0,00 h 256 W/m 15,6 km/h (3 Bft) 95,42 %
17.05.2016 18:00 17,8 C 18,7 C 15,1 C 58 % 0 lf 1014,2 hPa 0,0 l/m 0,47 h 0,00 h 211 W/m 13,7 km/h (3 Bft) 97,08 %
17.05.2016 19:00 17,5 C 17,4 C 15,5 C 59 % 0 lf 1013,9 hPa 0,0 l/m 0,00 h 0,00 h 68 W/m 14,2 km/h (3 Bft) 95,73 %
17.05.2016 20:00 16,4 C 16,2 C 14,3 C 63 % 0 lf 1013,9 hPa 0,0 l/m 0,00 h 0,00 h 26 W/m 12,3 km/h (3 Bft) 96,51 %
17.05.2016 21:00 15,6 C 14,5 C 12,6 C 65 % 0 lf 1013,9 hPa 0,0 l/m 0,00 h 0,00 h 8 W/m 4,2 km/h (1 Bft) 95,80 %
17.05.2016 22:00 14,3 C 12,9 C 11,1 C 71 % 0 lf 1014,0 hPa 0,0 l/m 0,00 h 0,00 h 0 W/m 1,3 km/h (1 Bft) 95,66 %
17.05.2016 23:00 13,1 C 12,0 C 10,4 C 77 % 0 lf 1013,8 hPa 0,0 l/m 0,00 h 0,00 h 0 W/m 0,0 km/h (0 Bft) 95,80 %
18.05.2016 00:00 12,3 C 12,4 C 10,8 C 81 % 0 lf 1013,5 hPa 0,0 l/m 0,00 h 0,00 h 0 W/m 4,7 km/h (1 Bft) 98,33 %
18.05.2016 01:00 12,5 C 13,0 C 11,3 C 80 % 0 lf 1013,1 hPa 0,0 l/m 0,00 h 0,00 h 0 W/m 7,3 km/h (2 Bft) 94,17 %
18.05.2016 02:00 13,1 C 13,3 C 11,7 C 77 % 0 lf 1012,6 hPa 0,0 l/m 0,00 h 0,00 h 0 W/m 12,2 km/h (2 Bft) 97,01 %
18.05.2016 03:00 13,0 C 12,8 C 11,7 C 77 % 0 lf 1012,1 hPa 0,0 l/m 0,00 h 0,00 h 0 W/m 10,1 km/h (2 Bft) 97,44 %
18.05.2016 04:00 12,8 C 12,8 C 11,2 C 78 % 0 lf 1011,5 hPa 0,0 l/m 0,00 h 0,00 h 0 W/m 8,9 km/h (2 Bft) 96,38 %
18.05.2016 05:00 12,6 C 12,6 C 11,1 C 78 % 0 lf 1011,2 hPa 0,0 l/m 0,00 h 0,00 h 6 W/m 8,7 km/h (2 Bft) 94,37 %
18.05.2016 06:00 12,4 C 12,7 C 11,2 C 79 % 0 lf 1010,9 hPa 0,0 l/m 0,00 h 0,00 h 33 W/m 8,5 km/h (2 Bft) 97,08 %
18.05.2016 07:00 12,6 C 13,5 C 11,9 C 80 % 0 lf 1010,9 hPa 0,0 l/m 0,27 h 0,00 h 117 W/m 9,4 km/h (2 Bft) 95,23 %
18.05.2016 08:00 13,7 C 15,6 C 13,8 C 79 % 0 lf 1010,7 hPa 0,0 l/m 0,10 h 0,00 h 178 W/m 9,8 km/h (2 Bft) 97,79 %
18.05.2016 09:00 15,4 C 18,1 C 15,9 C 73 % 0 lf 1010,4 hPa 0,0 l/m 0,83 h 0,00 h 317 W/m 14,5 km/h (3 Bft) 95,16 %
18.05.2016 10:00 17,0 C 20,2 C 17,8 C 63 % 0 lf 1010,0 hPa 0,0 l/m 0,67 h 0,00 h 367 W/m 13,8 km/h (3 Bft) 95,43 %
18.05.2016 11:00 18,0 C 19,5 C 17,7 C 61 % 0 lf 1009,3 hPa 0,0 l/m 0,33 h 0,00 h 281 W/m 18,8 km/h (3 Bft) 97,12 %
18.05.2016 12:00 17,9 C 19,8 C 18,1 C 62 % 0 lf 1008,7 hPa 0,0 l/m 0,20 h 0,00 h 315 W/m 16,5 km/h (3 Bft) 96,87 %
18.05.2016 13:00 18,7 C 20,9 C 19,4 C 60 % 0 lf 1008,0 hPa 0,0 l/m 0,47 h 0,00 h 412 W/m 17,6 km/h (3 Bft) 93,88 %
18.05.2016 14:00 18,9 C 19,6 C 18,2 C 57 % 0 lf 1007,5 hPa 0,0 l/m 0,00 h 0,03 h 207 W/m 13,5 km/h (3 Bft) 98,65 %
18.05.2016 15:00 17,8 C 17,8 C 16,2 C 59 % 0 lf 1007,3 hPa 0,0 l/m 0,00 h 0,03 h 106 W/m 24,6 km/h (4 Bft) 95,51 %
18.05.2016 16:00 17,1 C 18,1 C 16,9 C 64 % 0 lf 1006,7 hPa 0,0 l/m 0,03 h 0,00 h 227 W/m 20,4 km/h (4 Bft) 94,95 %
18.05.2016 17:00 18,0 C 19,3 C 18,6 C 62 % 0 lf 1006,0 hPa 0,0 l/m 0,73 h 0,00 h 305 W/m 21,1 km/h (4 Bft) 97,43 %
18.05.2016 18:00 18,0 C 18,2 C 17,1 C 61 % 0 lf 1005,1 hPa 0,0 l/m 0,00 h 0,00 h 89 W/m 16,3 km/h (3 Bft) 96,87 %
18.05.2016 19:00 16,0 C 13,3 C 12,3 C 78 % 14 lf 1005,5 hPa 2,8 l/m 0,00 h 0,97 h 18 W/m 13,0 km/h (3 Bft) 93,52 %
18.05.2016 20:00 13,6 C 12,2 C 11,3 C 88 % 15 lf 1005,1 hPa 1,0 l/m 0,00 h 0,93 h 11 W/m 7,8 km/h (2 Bft) 97,65 %
18.05.2016 21:00 13,1 C 12,2 C 11,1 C 92 % 15 lf 1005,0 hPa 0,0 l/m 0,00 h 0,50 h 4 W/m 8,4 km/h (2 Bft) 95,65 %
18.05.2016 22:00 12,6 C 11,8 C 10,6 C 94 % 15 lf 1004,8 hPa 0,2 l/m 0,00 h 0,00 h 0 W/m 10,8 km/h (2 Bft) 96,32 %
18.05.2016 23:00 11,8 C 11,2 C 10,0 C 94 % 15 lf 1004,6 hPa 0,0 l/m 0,00 h 0,00 h 0 W/m 10,7 km/h (2 Bft) 94,59 %
19.05.2016 00:00 11,7 C 11,7 C 10,6 C 95 % 15 lf 1004,4 hPa 0,0 l/m 0,00 h 0,00 h 0 W/m 10,3 km/h (2 Bft) 94,34 %
19.05.2016 01:00 11,7 C 11,7 C 10,5 C 96 % 15 lf 1004,4 hPa 0,4 l/m 0,00 h 0,40 h 0 W/m 9,4 km/h (2 Bft) 95,36 %
19.05.2016 02:00 11,6 C 11,0 C 9,8 C 96 % 15 lf 1004,3 hPa 0,0 l/m 0,00 h 0,00 h 0 W/m 4,9 km/h (1 Bft) 97,00 %
19.05.2016 03:00 11,3 C 11,0 C 9,9 C 96 % 15 lf 1004,4 hPa 0,0 l/m 0,00 h 0,20 h 0 W/m 5,7 km/h (1 Bft) 93,33 %
19.05.2016 04:00 11,2 C 11,1 C 10,0 C 96 % 15 lf 1004,7 hPa 0,2 l/m 0,00 h 0,53 h 0 W/m 4,7 km/h (1 Bft) 97,51 %
19.05.2016 05:00 11,2 C 10,9 C 9,9 C 96 % 15 lf 1005,3 hPa 0,2 l/m 0,00 h 0,70 h 9 W/m 11,9 km/h (2 Bft) 97,41 %
19.05.2016 06:00 10,4 C 10,2 C 9,2 C 96 % 15 lf 1006,2 hPa 0,0 l/m 0,10 h 0,00 h 39 W/m 15,5 km/h (3 Bft) 94,96 %
19.05.2016 07:00 10,4 C 10,4 C 9,4 C 96 % 15 lf 1007,1 hPa 0,0 l/m 0,00 h 0,00 h 50 W/m 14,4 km/h (3 Bft) 95,07 %
19.05.2016 08:00 10,6 C 11,1 C 9,6 C 96 % 9 lf 1008,0 hPa 0,0 l/m 0,00 h 0,27 h 116 W/m 12,2 km/h (2 Bft) 96,99 %
19.05.2016 09:00 11,8 C 15,1 C 11,4 C 95 % 0 lf 1009,0 hPa 0,0 l/m 0,93 h 0,00 h 332 W/m 12,4 km/h (3 Bft) 95,18 %
19.05.2016 10:00 13,9 C 18,7 C 14,2 C 85 % 0 lf 1009,7 hPa 0,0 l/m 0,53 h 0,00 h 436 W/m 11,9 km/h (2 Bft) 96,95 %
19.05.2016 11:00 15,1 C 20,4 C 17,6 C 77 % 0 lf 1010,4 hPa 0,0 l/m 0,63 h 0,00 h 574 W/m 11,6 km/h (2 Bft) 95,94 %
19.05.2016 12:00 16,7 C 22,6 C 18,4 C 69 % 0 lf 1011,0 hPa 0,0 l/m 0,40 h 0,00 h 450 W/m 9,7 km/h (2 Bft) 95,99 %
19.05.2016 13:00 17,6 C 22,2 C 18,0 C 65 % 0 lf 1011,4 hPa 0,0 l/m 0,67 h 0,00 h 597 W/m 12,1 km/h (2 Bft) 95,73 %
19.05.2016 14:00 18,1 C 22,2 C 18,2 C 63 % 0 lf 1011,7 hPa 0,0 l/m 0,70 h 0,00 h 535 W/m 12,1 km/h (2 Bft) 95,65 %
19.05.2016 15:00 18,9 C 24,7 C 19,2 C 60 % 0 lf 1012,0 hPa 0,0 l/m 0,80 h 0,00 h 719 W/m 13,3 km/h (3 Bft) 97,02 %
19.05.2016 16:00 18,8 C 25,4 C 20,9 C 58 % 0 lf 1012,4 hPa 0,0 l/m 1,00 h 0,00 h 709 W/m 14,6 km/h (3 Bft) 95,22 %
19.05.2016 17:00 19,1 C 22,9 C 17,8 C 55 % 0 lf 1012,6 hPa 0,0 l/m 1,00 h 0,00 h 557 W/m 14,9 km/h (3 Bft) 95,20 %
19.05.2016 18:00 18,8 C 19,3 C 16,7 C 54 % 0 lf 1012,9 hPa 0,0 l/m 0,87 h 0,00 h 362 W/m 13,0 km/h (3 Bft) 98,58 %
19.05.2016 19:00 18,1 C 18,2 C 16,0 C 56 % 0 lf 1013,3 hPa 0,0 l/m 0,97 h 0,00 h 200 W/m 10,9 km/h (2 Bft) 94,17 %
19.05.2016 20:00 17,4 C 16,5 C 14,3 C 59 % 0 lf 1014,0 hPa 0,0 l/m 0,40 h 0,00 h 49 W/m 6,4 km/h (2 Bft) 95,46 %
19.05.2016 21:00 15,8 C 13,4 C 11,6 C 65 % 0 lf 1014,6 hPa 0,0 l/m 0,00 h 0,00 h 7 W/m 2,9 km/h (1 Bft) 97,63 %
19.05.2016 22:00 13,8 C 12,4 C 10,3 C 74 % 0 lf 1014,9 hPa 0,0 l/m 0,00 h 0,00 h 0 W/m 5,7 km/h (1 Bft) 94,89 %
19.05.2016 23:00 12,5 C 12,1 C 10,0 C 76 % 0 lf 1015,1 hPa 0,0 l/m 0,00 h 0,00 h 0 W/m 6,4 km/h (2 Bft) 97,99 %
20.05.2016 00:00 12,0 C 12,1 C 9,8 C 77 % 0 lf 1015,2 hPa 0,0 l/m 0,00 h 0,00 h 0 W/m 7,4 km/h (2 Bft) 77,36 %
20.05.2016 01:00 12,0 C 11,9 C 10,0 C 76 % 0 lf 1015,5 hPa 0,0 l/m 0,00 h 0,00 h 0 W/m 9,2 km/h (2 Bft) 94,51 %
20.05.2016 02:00 12,0 C 12,1 C 10,6 C 77 % 0 lf 1015,4 hPa 0,0 l/m 0,00 h 0,00 h 0 W/m 14,9 km/h (3 Bft) 98,08 %
20.05.2016 03:00 11,7 C 11,3 C 9,9 C 81 % 0 lf 1015,6 hPa 0,0 l/m 0,00 h 0,00 h 0 W/m 13,8 km/h (3 Bft) 96,58 %
20.05.2016 04:00 11,2 C 10,8 C 9,5 C 85 % 0 lf 1016,2 hPa 0,0 l/m 0,00 h 0,00 h 0 W/m 12,6 km/h (3 Bft) 94,02 %
20.05.2016 05:00 10,7 C 10,6 C 9,2 C 87 % 0 lf 1016,2 hPa 0,0 l/m 0,10 h 0,00 h 11 W/m 11,9 km/h (2 Bft) 97,01 %
20.05.2016 06:00 10,7 C 11,4 C 10,1 C 87 % 0 lf 1016,2 hPa 0,0 l/m 0,90 h 0,00 h 81 W/m 13,3 km/h (3 Bft) 96,94 %
20.05.2016 07:00 11,8 C 12,6 C 11,3 C 84 % 0 lf 1016,3 hPa 0,0 l/m 0,00 h 0,20 h 62 W/m 12,1 km/h (2 Bft) 95,17 %
20.05.2016 08:00 12,6 C 13,7 C 12,2 C 82 % 0 lf 1016,2 hPa 0,0 l/m 0,03 h 0,00 h 123 W/m 14,3 km/h (3 Bft) 96,22 %
20.05.2016 09:00 13,9 C 15,6 C 13,9 C 80 % 0 lf 1016,3 hPa 0,0 l/m 0,03 h 0,00 h 186 W/m 16,6 km/h (3 Bft) 94,73 %
20.05.2016 10:00 15,4 C 17,2 C 15,4 C 78 % 0 lf 1016,2 hPa 0,0 l/m 0,20 h 0,00 h 255 W/m 21,6 km/h (4 Bft) 96,87 %
20.05.2016 11:00 17,6 C 21,1 C 18,8 C 73 % 0 lf 1016,2 hPa 0,0 l/m 0,73 h 0,00 h 462 W/m 24,2 km/h (4 Bft) 95,87 %
20.05.2016 12:00 17,3 C 18,4 C 16,7 C 74 % 0 lf 1016,4 hPa 0,0 l/m 0,07 h 0,00 h 212 W/m 24,7 km/h (4 Bft) 95,02 %
20.05.2016 13:00 17,4 C 18,5 C 16,8 C 75 % 0 lf 1016,6 hPa 0,0 l/m 0,00 h 0,00 h 185 W/m 21,3 km/h (4 Bft) 96,65 %
20.05.2016 14:00 17,6 C 19,0 C 17,3 C 75 % 0 lf 1016,6 hPa 0,0 l/m 0,00 h 0,00 h 235 W/m 21,4 km/h (4 Bft) 97,72 %
20.05.2016 15:00 19,0 C 22,1 C 19,5 C 70 % 0 lf 1016,5 hPa 0,0 l/m 0,87 h 0,00 h 497 W/m 25,5 km/h (4 Bft) 94,38 %
20.05.2016 16:00 18,5 C 18,7 C 17,0 C 71 % 2 lf 1016,6 hPa 0,0 l/m 0,00 h 0,17 h 131 W/m 23,3 km/h (4 Bft) 96,79 %
20.05.2016 17:00 16,2 C 15,3 C 13,7 C 86 % 13 lf 1017,1 hPa 0,0 l/m 0,00 h 0,40 h 110 W/m 17,1 km/h (3 Bft) 96,58 %
20.05.2016 18:00 15,3 C 16,2 C 14,7 C 89 % 0 lf 1016,9 hPa 0,0 l/m 0,20 h 0,10 h 148 W/m 18,1 km/h (3 Bft) 94,66 %
20.05.2016 19:00 16,1 C 16,9 C 15,5 C 87 % 0 lf 1016,7 hPa 0,0 l/m 0,67 h 0,00 h 180 W/m 18,1 km/h (3 Bft) 95,87 %
20.05.2016 20:00 16,0 C 15,8 C 14,4 C 84 % 0 lf 1016,6 hPa 0,0 l/m 0,03 h 0,00 h 40 W/m 14,2 km/h (3 Bft) 96,23 %
20.05.2016 21:00 15,5 C 15,3 C 13,8 C 85 % 0 lf 1016,9 hPa 0,0 l/m 0,13 h 0,00 h 11 W/m 12,5 km/h (3 Bft) 98,32 %
20.05.2016 22:00 15,0 C 14,6 C 13,0 C 85 % 0 lf 1017,0 hPa 0,0 l/m 0,00 h 0,00 h 0 W/m 13,9 km/h (3 Bft) 94,73 %
20.05.2016 23:00 14,5 C 14,3 C 12,8 C 86 % 0 lf 1017,2 hPa 0,0 l/m 0,00 h 0,00 h 0 W/m 14,3 km/h (3 Bft) 95,75 %
21.05.2016 00:00 14,3 C 14,0 C 12,6 C 87 % 0 lf 1017,1 hPa 0,0 l/m 0,00 h 0,00 h 0 W/m 12,2 km/h (2 Bft) 97,19 %
21.05.2016 01:00 14,1 C 13,8 C 12,4 C 88 % 0 lf 1016,7 hPa 0,0 l/m 0,00 h 0,00 h 0 W/m 10,9 km/h (2 Bft) 96,08 %
21.05.2016 02:00 13,7 C 13,4 C 11,9 C 88 % 1 lf 1016,3 hPa 0,0 l/m 0,00 h 0,00 h 0 W/m 7,7 km/h (2 Bft) 94,66 %
21.05.2016 03:00 13,3 C 12,7 C 11,1 C 89 % 1 lf 1016,1 hPa 0,0 l/m 0,00 h 0,00 h 0 W/m 5,7 km/h (1 Bft) 96,25 %
21.05.2016 04:00 12,7 C 12,5 C 10,7 C 90 % 2 lf 1015,8 hPa 0,0 l/m 0,00 h 0,00 h 0 W/m 6,4 km/h (2 Bft) 94,58 %
21.05.2016 05:00 12,4 C 12,4 C 11,1 C 92 % 1 lf 1015,6 hPa 0,0 l/m 0,00 h 0,00 h 9 W/m 8,1 km/h (2 Bft) 92,51 %
21.05.2016 06:00 12,2 C 12,3 C 11,1 C 93 % 1 lf 1015,3 hPa 0,0 l/m 0,23 h 0,00 h 57 W/m 9,3 km/h (2 Bft) 96,34 %
21.05.2016 07:00 12,9 C 14,6 C 12,9 C 94 % 0 lf 1015,1 hPa 0,0 l/m 0,82 h 0,00 h 159 W/m 10,2 km/h (2 Bft) 95,43 %
21.05.2016 08:00 14,6 C 17,9 C 14,7 C 92 % 0 lf 1015,3 hPa 0,0 l/m 0,83 h 0,00 h 305 W/m 10,3 km/h (2 Bft) 96,72 %
21.05.2016 09:00 17,6 C 21,6 C 18,0 C 84 % 0 lf 1015,3 hPa 0,0 l/m 1,00 h 0,00 h 426 W/m 15,5 km/h (3 Bft) 95,16 %
21.05.2016 10:00 19,8 C 24,2 C 21,8 C 74 % 0 lf 1015,1 hPa 0,0 l/m 0,97 h 0,00 h 530 W/m 24,8 km/h (4 Bft) 95,80 %
21.05.2016 11:00 21,2 C 26,2 C 24,0 C 68 % 0 lf 1014,9 hPa 0,0 l/m 0,73 h 0,00 h 667 W/m 23,6 km/h (4 Bft) 97,01 %
21.05.2016 12:00 22,5 C 28,0 C 25,8 C 64 % 0 lf 1014,4 hPa 0,0 l/m 0,80 h 0,00 h 672 W/m 20,5 km/h (4 Bft) 96,20 %
21.05.2016 13:00 23,6 C 27,6 C 24,7 C 59 % 0 lf 1014,1 hPa 0,0 l/m 0,88 h 0,00 h 692 W/m 21,3 km/h (4 Bft) 94,03 %
21.05.2016 14:00 24,3 C 28,9 C 24,2 C 57 % 0 lf 1013,7 hPa 0,0 l/m 0,97 h 0,00 h 786 W/m 23,9 km/h (4 Bft) 97,51 %
21.05.2016 15:00 24,3 C 28,1 C 24,2 C 55 % 0 lf 1013,1 hPa 0,0 l/m 0,97 h 0,00 h 778 W/m 24,0 km/h (4 Bft) 97,24 %
21.05.2016 16:00 24,9 C 27,6 C 25,6 C 54 % 0 lf 1012,8 hPa 0,0 l/m 0,80 h 0,00 h 591 W/m 22,6 km/h (4 Bft) 93,34 %
21.05.2016 17:00 24,4 C 25,9 C 23,2 C 55 % 0 lf 1012,3 hPa 0,0 l/m 0,83 h 0,00 h 447 W/m 22,6 km/h (4 Bft) 98,86 %
21.05.2016 18:00 24,0 C 24,2 C 20,2 C 57 % 0 lf 1011,7 hPa 0,0 l/m 1,00 h 0,00 h 313 W/m 21,6 km/h (4 Bft) 95,46 %
21.05.2016 19:00 23,0 C 23,1 C 17,6 C 60 % 0 lf 1011,5 hPa 0,0 l/m 0,40 h 0,03 h 125 W/m 18,2 km/h (3 Bft) 95,16 %
21.05.2016 20:00 22,5 C 22,4 C 19,9 C 62 % 0 lf 1011,0 hPa 0,0 l/m 0,00 h 0,00 h 38 W/m 17,1 km/h (3 Bft) 96,80 %
21.05.2016 21:00 21,8 C 21,5 C 19,3 C 63 % 0 lf 1010,8 hPa 0,0 l/m 0,00 h 0,00 h 7 W/m 18,0 km/h (3 Bft) 96,86 %
21.05.2016 22:00 21,1 C 20,8 C 18,7 C 65 % 0 lf 1010,6 hPa 0,0 l/m 0,00 h 0,00 h 0 W/m 14,7 km/h (3 Bft) 94,73 %
21.05.2016 23:00 20,4 C 20,1 C 18,1 C 67 % 0 lf 1009,9 hPa 0,0 l/m 0,00 h 0,00 h 0 W/m 14,1 km/h (3 Bft) 96,30 %
22.05.2016 00:00 19,6 C 18,5 C 16,2 C 69 % 0 lf 1009,9 hPa 0,0 l/m 0,00 h 0,00 h 0 W/m 8,1 km/h (2 Bft) 96,94 %
22.05.2016 01:00 18,1 C 17,3 C 15,4 C 74 % 0 lf 1009,2 hPa 0,0 l/m 0,00 h 0,00 h 0 W/m 11,7 km/h (2 Bft) 97,79 %
22.05.2016 02:00 17,0 C 16,4 C 14,4 C 77 % 0 lf 1008,5 hPa 0,0 l/m 0,00 h 0,00 h 0 W/m 9,2 km/h (2 Bft) 92,67 %
22.05.2016 03:00 16,1 C 15,7 C 13,9 C 80 % 0 lf 1008,0 hPa 0,0 l/m 0,00 h 0,00 h 0 W/m 9,8 km/h (2 Bft) 97,79 %
22.05.2016 04:00 16,0 C 16,3 C 14,6 C 81 % 0 lf 1007,2 hPa 0,0 l/m 0,00 h 0,00 h 0 W/m 16,9 km/h (3 Bft) 96,38 %
22.05.2016 05:00 16,6 C 16,5 C 14,9 C 78 % 0 lf 1006,2 hPa 0,0 l/m 0,00 h 0,00 h 10 W/m 19,4 km/h (3 Bft) 95,80 %
22.05.2016 06:00 16,4 C 16,6 C 14,9 C 80 % 0 lf 1006,0 hPa 0,0 l/m 0,10 h 0,00 h 42 W/m 13,3 km/h (3 Bft) 95,37 %
22.05.2016 07:00 17,1 C 18,0 C 16,4 C 78 % 0 lf 1005,7 hPa 0,0 l/m 0,60 h 0,00 h 143 W/m 16,0 km/h (3 Bft) 96,51 %
22.05.2016 08:00 18,4 C 19,8 C 18,0 C 77 % 0 lf 1005,6 hPa 0,0 l/m 0,67 h 0,00 h 257 W/m 16,6 km/h (3 Bft) 95,21 %
22.05.2016 09:00 19,8 C 22,5 C 20,0 C 75 % 0 lf 1005,8 hPa 0,0 l/m 0,63 h 0,00 h 338 W/m 12,4 km/h (3 Bft) 96,80 %
22.05.2016 10:00 21,1 C 22,3 C 20,3 C 69 % 0 lf 1006,2 hPa 0,0 l/m 0,00 h 0,00 h 246 W/m 20,4 km/h (4 Bft) 94,66 %
22.05.2016 11:00 20,9 C 21,8 C 19,8 C 71 % 0 lf 1006,7 hPa 0,0 l/m 0,00 h 0,20 h 223 W/m 22,5 km/h (4 Bft) 96,51 %
22.05.2016 12:00 20,1 C 20,7 C 18,9 C 73 % 0 lf 1007,2 hPa 0,0 l/m 0,00 h 0,00 h 147 W/m 20,2 km/h (4 Bft) 96,30 %
22.05.2016 13:00 19,6 C 20,6 C 18,6 C 78 % 0 lf 1007,2 hPa 0,0 l/m 0,00 h 0,17 h 160 W/m 11,5 km/h (2 Bft) 94,81 %
22.05.2016 14:00 19,9 C 20,4 C 18,4 C 79 % 1 lf 1007,0 hPa 0,0 l/m 0,00 h 0,80 h 150 W/m 9,9 km/h (2 Bft) 95,59 %
22.05.2016 15:00 19,3 C 17,8 C 16,0 C 84 % 15 lf 1007,0 hPa 0,2 l/m 0,00 h 1,00 h 86 W/m 4,0 km/h (1 Bft) 98,12 %
22.05.2016 16:00 18,5 C 17,3 C 15,9 C 88 % 15 lf 1007,0 hPa 1,4 l/m 0,00 h 1,00 h 74 W/m 4,8 km/h (1 Bft) 92,82 %
22.05.2016 17:00 17,1 C 15,7 C 14,7 C 91 % 15 lf 1007,2 hPa 2,6 l/m 0,00 h 1,00 h 47 W/m 7,8 km/h (2 Bft) 96,65 %
22.05.2016 18:00 16,1 C 15,1 C 14,2 C 93 % 15 lf 1007,0 hPa 1,2 l/m 0,00 h 1,00 h 43 W/m 6,9 km/h (2 Bft) 97,27 %
22.05.2016 19:00 15,9 C 15,4 C 14,3 C 94 % 15 lf 1006,8 hPa 0,4 l/m 0,00 h 0,80 h 33 W/m 7,1 km/h (2 Bft) 95,02 %
22.05.2016 20:00 16,1 C 15,6 C 14,4 C 96 % 15 lf 1006,9 hPa 0,0 l/m 0,00 h 0,47 h 14 W/m 6,9 km/h (2 Bft) 95,22 %
22.05.2016 21:00 15,7 C 15,1 C 14,0 C 96 % 15 lf 1007,1 hPa 0,0 l/m 0,00 h 0,07 h 6 W/m 7,5 km/h (2 Bft) 97,99 %
22.05.2016 22:00 15,4 C 15,0 C 13,9 C 97 % 15 lf 1007,0 hPa 0,0 l/m 0,00 h 0,13 h 0 W/m 6,9 km/h (2 Bft) 95,02 %
22.05.2016 23:00 14,8 C 14,1 C 13,0 C 97 % 15 lf 1006,8 hPa 0,0 l/m 0,00 h 0,07 h 0 W/m 10,3 km/h (2 Bft) 97,01 %
Min-Datum _ 16.05.16 16.05.16 16.05.16 17.05.16 16.05.16 19.05.16 - - - - 16.05.16 20.05.16
_ Min-Zeit 06:36 05:40 05:50 16:16 00:00 01:24 - - - - 03:48 00:07
Minimum _ 5,1 C 4,4 C 3,3 C 50 % 0 lf 1004,2 hPa - - - - 0,0 km/h (0 Bft) 0,00 %
Max-Datum _ 21.05.16 21.05.16 21.05.16 22.05.16 16.05.16 16.05.16 18.05.16 16.05.16 16.05.16 16.05.16 18.05.16 16.05.16
_ Max-Zeit 16:12 12:36 16:10 21:54 04:46 00:06 19:50 06:22 04:32 12:56 15:16 00:00
Maximum _ 25,4 C 31,1 C 30,0 C 97 % 15 lf 1020,1 hPa 2,8 l/m 0,03 h 0,03 h 1192 W/m 43,9 km/h
SW (6 Bft)
100,00 %
Durchschnitt _ 14,9 C 15,8 C 13,9 C 76 % 2 lf 1013,1 hPa #10,6 l/m #39:39 h #12:38 h 234 W/m 12,8 km/h (3 Bft) 95,95 %
© 2016 W. Hausmann